createdAt,value
2023-02-20T00:01:49.232Z,6.28
2023-02-20T00:04:17.385Z,4.93
2023-02-20T00:06:46.096Z,5.77
2023-02-20T00:09:14.449Z,5.65
2023-02-20T00:11:43.006Z,5.10
2023-02-20T00:14:11.584Z,5.47
2023-02-20T00:16:40.210Z,4.53
2023-02-20T00:19:10.161Z,4.90
2023-02-20T00:21:38.733Z,5.57
2023-02-20T00:24:07.791Z,5.30
2023-02-20T00:26:36.448Z,6.82
2023-02-20T00:29:05.029Z,5.32
2023-02-20T00:31:33.125Z,7.27
2023-02-20T00:34:01.720Z,4.67
2023-02-20T00:36:31.208Z,4.57
2023-02-20T00:38:59.862Z,4.90
2023-02-20T00:41:27.980Z,4.30
2023-02-20T00:43:56.571Z,3.97
2023-02-20T00:46:25.177Z,6.27
2023-02-20T00:48:53.834Z,6.00
2023-02-20T00:51:22.012Z,5.88
2023-02-20T00:53:52.079Z,7.60
2023-02-20T00:56:20.940Z,5.77
2023-02-20T00:58:48.988Z,5.23
2023-02-20T01:01:17.630Z,6.70
2023-02-20T01:03:46.261Z,6.10
2023-02-20T01:06:14.840Z,5.17
2023-02-20T01:08:42.928Z,5.82
2023-02-20T01:11:13.044Z,4.82
2023-02-20T01:13:41.694Z,4.87
2023-02-20T01:16:10.161Z,6.60
2023-02-20T01:18:38.877Z,5.87
2023-02-20T01:21:07.721Z,7.47
2023-02-20T01:23:35.876Z,9.43
2023-02-20T01:26:04.537Z,4.77
2023-02-20T01:28:34.057Z,4.50
2023-02-20T01:31:02.693Z,8.03
2023-02-20T01:33:31.292Z,5.80
2023-02-20T01:35:59.881Z,5.03
2023-02-20T01:38:28.452Z,6.53
2023-02-20T01:40:56.738Z,5.40
2023-02-20T01:43:25.304Z,5.47
2023-02-20T01:45:55.308Z,5.13
2023-02-20T01:48:25.787Z,6.23
2023-02-20T01:50:58.856Z,5.77
2023-02-20T01:53:29.750Z,5.20
2023-02-20T01:56:01.795Z,7.40
2023-02-20T01:58:32.638Z,5.67
2023-02-20T02:01:02.401Z,7.37
2023-02-20T02:03:34.914Z,6.53
2023-02-20T02:06:07.333Z,5.03
2023-02-20T02:08:38.281Z,5.33
2023-02-20T02:11:09.004Z,6.05
2023-02-20T02:13:39.912Z,7.00
2023-02-20T02:16:21.883Z,8.80
2023-02-20T02:18:58.991Z,6.03
2023-02-20T02:22:01.914Z,5.70
2023-02-20T02:25:09.201Z,7.63
2023-02-20T02:28:17.072Z,6.90
2023-02-20T02:31:27.322Z,7.57
2023-02-20T02:34:32.449Z,6.90
2023-02-20T02:37:08.168Z,7.25
2023-02-20T02:39:45.331Z,6.00
2023-02-20T02:42:21.923Z,7.47
2023-02-20T02:44:55.363Z,7.37
2023-02-20T02:47:29.001Z,7.80
2023-02-20T02:50:02.445Z,7.05
2023-02-20T02:52:46.760Z,6.87
2023-02-20T02:55:17.982Z,6.57
2023-02-20T02:57:46.747Z,7.10
2023-02-20T03:00:19.688Z,6.83
2023-02-20T03:02:55.494Z,7.78
2023-02-20T03:05:27.575Z,7.18
2023-02-20T03:07:59.842Z,7.13
2023-02-20T03:10:36.164Z,8.95
2023-02-20T03:13:06.741Z,8.02
2023-02-20T03:15:39.897Z,7.88
2023-02-20T03:18:18.504Z,9.20
2023-02-20T03:20:49.922Z,9.18
2023-02-20T03:23:24.037Z,8.90
2023-02-20T03:25:55.649Z,7.20
2023-02-20T03:28:28.062Z,8.02
2023-02-20T03:31:00.215Z,7.93
2023-02-20T03:33:52.596Z,8.43
2023-02-20T03:36:45.409Z,9.02
2023-02-20T03:39:37.594Z,7.60
2023-02-20T03:42:26.863Z,7.70
2023-02-20T03:44:55.861Z,7.90
2023-02-20T03:47:27.976Z,9.20
2023-02-20T03:49:58.059Z,8.83
2023-02-20T03:52:26.215Z,7.72
2023-02-20T03:54:55.773Z,9.23
2023-02-20T03:57:28.179Z,9.33
2023-02-20T04:00:00.942Z,8.10
2023-02-20T04:02:32.503Z,8.77
2023-02-20T04:05:06.295Z,9.47
2023-02-20T04:07:40.173Z,9.70
2023-02-20T04:10:17.016Z,8.23
2023-02-20T04:12:47.263Z,9.00
2023-02-20T04:15:17.012Z,8.25
2023-02-20T04:17:49.115Z,11.60
2023-02-20T04:20:18.074Z,10.23
2023-02-20T04:22:50.586Z,9.63
2023-02-20T04:25:27.088Z,8.77
2023-02-20T04:27:55.767Z,11.00
2023-02-20T04:30:24.155Z,8.33
2023-02-20T04:32:52.776Z,9.40
2023-02-20T04:35:22.554Z,8.40
2023-02-20T04:37:51.310Z,9.43
2023-02-20T04:40:23.830Z,8.20
2023-02-20T04:42:51.979Z,6.90
2023-02-20T04:45:20.560Z,7.88
2023-02-20T04:47:49.368Z,6.90
2023-02-20T04:50:23.574Z,8.25
2023-02-20T04:52:51.736Z,7.03
2023-02-20T04:55:21.391Z,6.25
2023-02-20T04:57:49.762Z,6.97
2023-02-20T05:00:20.924Z,7.13
2023-02-20T05:02:50.336Z,7.83
2023-02-20T05:05:22.057Z,7.57
2023-02-20T05:07:50.780Z,6.57
2023-02-20T05:10:22.755Z,6.90
2023-02-20T05:12:50.951Z,6.27
2023-02-20T05:15:20.325Z,7.03
2023-02-20T05:17:48.741Z,5.43
2023-02-20T05:20:18.962Z,5.97
2023-02-20T05:22:46.627Z,5.90
2023-02-20T05:25:15.770Z,9.03
2023-02-20T05:27:45.747Z,8.63
2023-02-20T05:30:14.945Z,7.00
2023-02-20T05:32:43.078Z,6.47
2023-02-20T05:35:11.180Z,8.77
2023-02-20T05:37:39.768Z,6.13
2023-02-20T05:40:08.615Z,6.13
2023-02-20T05:42:37.900Z,5.83
2023-02-20T05:45:09.158Z,6.93
2023-02-20T05:47:39.406Z,7.67
2023-02-20T05:50:07.989Z,7.45
2023-02-20T05:52:36.562Z,5.73
2023-02-20T05:55:04.790Z,5.33
2023-02-20T05:57:33.387Z,6.33
2023-02-20T06:00:01.930Z,6.23
2023-02-20T06:02:34.710Z,5.40
2023-02-20T06:05:02.852Z,5.93
2023-02-20T06:07:30.994Z,6.50
2023-02-20T06:09:59.069Z,9.07
2023-02-20T06:12:27.262Z,7.32
2023-02-20T06:14:55.826Z,6.90
2023-02-20T06:17:24.444Z,7.43
2023-02-20T06:19:54.039Z,8.75
2023-02-20T06:22:22.643Z,7.68
2023-02-20T06:24:50.756Z,7.10
2023-02-20T06:27:19.984Z,7.67
2023-02-20T06:29:49.669Z,6.30
2023-02-20T06:32:19.073Z,6.70
2023-02-20T06:34:47.266Z,6.00
2023-02-20T06:37:16.778Z,5.70
2023-02-20T06:39:46.811Z,6.23
2023-02-20T06:42:14.947Z,5.77
2023-02-20T06:44:44.652Z,5.73
2023-02-20T06:47:13.830Z,6.20
2023-02-20T06:49:42.517Z,6.13
2023-02-20T06:52:11.210Z,6.03
2023-02-20T06:54:41.235Z,6.68
2023-02-20T06:57:09.353Z,6.00
2023-02-20T06:59:42.907Z,5.40
2023-02-20T07:02:13.657Z,4.90
2023-02-20T07:04:42.365Z,6.17
2023-02-20T07:07:10.982Z,6.33
2023-02-20T07:09:42.020Z,6.65
2023-02-20T07:12:11.819Z,7.47
2023-02-20T07:14:40.408Z,7.63
2023-02-20T07:17:08.974Z,7.60
2023-02-20T07:19:37.078Z,7.43
2023-02-20T07:22:05.275Z,8.33
2023-02-20T07:24:35.708Z,5.57
2023-02-20T07:27:07.754Z,5.03
2023-02-20T07:29:35.877Z,6.17
2023-02-20T07:32:04.552Z,5.00
2023-02-20T07:34:32.788Z,7.63
2023-02-20T07:37:01.334Z,5.37
2023-02-20T07:39:30.942Z,4.77
2023-02-20T07:41:59.154Z,6.22
2023-02-20T07:44:28.665Z,5.15
2023-02-20T07:46:56.811Z,7.03
2023-02-20T07:49:24.918Z,4.93
2023-02-20T07:51:53.541Z,4.60
2023-02-20T07:54:21.678Z,6.45
2023-02-20T07:56:50.496Z,6.40
2023-02-20T07:59:18.666Z,5.82
2023-02-20T08:01:48.626Z,3.93
2023-02-20T08:04:17.449Z,3.38
2023-02-20T08:06:45.526Z,4.70
2023-02-20T08:09:14.165Z,7.93
2023-02-20T08:11:42.288Z,5.63
2023-02-20T08:14:15.972Z,3.95
2023-02-20T08:16:44.659Z,4.17
2023-02-20T08:19:14.169Z,4.80
2023-02-20T08:21:42.841Z,4.10
2023-02-20T08:24:10.921Z,4.75
2023-02-20T08:26:45.550Z,6.20
2023-02-20T08:29:13.710Z,4.65
2023-02-20T08:31:42.359Z,3.57
2023-02-20T08:34:11.009Z,4.40
2023-02-20T08:36:42.218Z,3.70
2023-02-20T08:39:10.807Z,3.83
2023-02-20T08:41:44.359Z,3.35
2023-02-20T08:44:13.499Z,5.45
2023-02-20T08:46:47.378Z,3.13
2023-02-20T08:49:18.459Z,4.40
2023-02-20T08:51:48.079Z,3.33
2023-02-20T08:54:17.991Z,2.97
2023-02-20T08:56:46.174Z,3.95
2023-02-20T08:59:14.442Z,3.47
2023-02-20T09:01:43.609Z,3.40
2023-02-20T09:04:12.113Z,3.30
2023-02-20T09:06:40.676Z,5.03
2023-02-20T09:09:10.626Z,3.67
2023-02-20T09:11:39.380Z,6.13
2023-02-20T09:14:07.539Z,4.28
2023-02-20T09:16:36.171Z,4.22
2023-02-20T09:19:04.323Z,2.97
2023-02-20T09:21:32.872Z,3.50
2023-02-20T09:24:01.026Z,3.22
2023-02-20T09:26:31.016Z,2.50
2023-02-20T09:28:59.570Z,4.28
2023-02-20T09:31:27.859Z,3.92
2023-02-20T09:33:56.467Z,3.47
2023-02-20T09:36:24.584Z,4.95
2023-02-20T09:38:53.114Z,3.92
2023-02-20T09:41:35.166Z,3.30
2023-02-20T09:44:14.419Z,3.78
2023-02-20T09:46:47.246Z,3.50
2023-02-20T09:49:18.511Z,3.80
2023-02-20T09:51:52.033Z,4.57
2023-02-20T09:54:28.191Z,4.00
2023-02-20T09:57:00.249Z,4.63
2023-02-20T09:59:34.042Z,2.65
2023-02-20T10:02:12.632Z,3.88
2023-02-20T10:04:58.838Z,3.20
2023-02-20T10:07:32.260Z,3.35
2023-02-20T10:10:01.728Z,4.75
2023-02-20T10:12:37.332Z,2.83
2023-02-20T10:15:19.101Z,3.95
2023-02-20T10:17:55.704Z,2.10
2023-02-20T10:20:31.360Z,2.60
2023-02-20T10:23:06.332Z,2.58
2023-02-20T10:25:40.208Z,2.83
2023-02-20T10:28:13.476Z,4.07
2023-02-20T10:30:46.220Z,3.95
2023-02-20T10:33:25.541Z,2.60
2023-02-20T10:36:00.130Z,4.88
2023-02-20T10:38:34.976Z,2.65
2023-02-20T10:41:09.524Z,3.55
2023-02-20T10:43:44.994Z,4.60
2023-02-20T10:46:19.997Z,1.88
2023-02-20T10:48:48.894Z,2.80
2023-02-20T10:51:23.612Z,2.45
2023-02-20T10:53:59.271Z,4.57
2023-02-20T10:56:34.361Z,3.20
2023-02-20T10:59:10.774Z,2.85
2023-02-20T11:01:40.548Z,2.78
2023-02-20T11:04:15.414Z,3.08
2023-02-20T11:06:47.318Z,3.85
2023-02-20T11:09:16.051Z,3.45
2023-02-20T11:11:46.288Z,3.15
2023-02-20T11:14:39.887Z,2.88
2023-02-20T11:17:12.990Z,2.50
2023-02-20T11:19:44.552Z,3.15
2023-02-20T11:22:13.742Z,2.20
2023-02-20T11:24:43.302Z,2.25
2023-02-20T11:27:15.227Z,2.20
2023-02-20T11:29:50.070Z,3.88
2023-02-20T11:32:32.869Z,1.88
2023-02-20T11:35:27.037Z,4.68
2023-02-20T11:38:27.167Z,2.13
2023-02-20T11:41:27.854Z,2.00
2023-02-20T11:44:25.025Z,2.58
2023-02-20T11:47:18.415Z,3.97
2023-02-20T11:49:47.188Z,5.93
2023-02-20T11:52:20.314Z,2.55
2023-02-20T11:54:49.304Z,4.32
2023-02-20T11:57:27.257Z,4.60
2023-02-20T12:00:11.622Z,3.78
2023-02-20T12:02:50.457Z,3.70
2023-02-20T12:05:19.621Z,7.88
2023-02-20T12:07:58.351Z,4.47
2023-02-20T12:10:42.471Z,2.58
2023-02-20T12:13:16.315Z,2.92
2023-02-20T12:15:48.819Z,3.60
2023-02-20T12:18:42.846Z,2.90
2023-02-20T12:21:22.340Z,3.20
2023-02-20T12:24:02.979Z,2.92
2023-02-20T12:26:54.026Z,2.17
2023-02-20T12:29:36.588Z,3.53
2023-02-20T12:32:22.622Z,2.45
2023-02-20T12:35:02.013Z,3.42
2023-02-20T12:37:41.503Z,2.72
2023-02-20T12:40:27.943Z,4.18
2023-02-20T12:43:03.119Z,2.78
2023-02-20T12:45:39.200Z,5.13
2023-02-20T12:48:27.696Z,2.05
2023-02-20T12:51:08.747Z,3.60
2023-02-20T12:54:08.940Z,2.30
2023-02-20T12:56:51.250Z,4.65
2023-02-20T12:59:29.702Z,5.35
2023-02-20T13:02:04.732Z,2.53
2023-02-20T13:04:42.584Z,5.85
2023-02-20T13:07:19.717Z,3.95
2023-02-20T13:09:58.923Z,2.83
2023-02-20T13:12:26.964Z,3.20
2023-02-20T13:15:08.628Z,3.85
2023-02-20T13:17:43.744Z,2.10
2023-02-20T13:20:19.171Z,3.92
2023-02-20T13:23:02.069Z,4.55
2023-02-20T13:25:43.860Z,2.95
2023-02-20T13:28:46.215Z,3.35
2023-02-20T13:31:21.027Z,2.88
2023-02-20T13:33:51.914Z,3.85
2023-02-20T13:36:43.065Z,4.85
2023-02-20T13:39:48.159Z,4.38
2023-02-20T13:42:38.935Z,3.70
2023-02-20T13:45:36.790Z,2.95
2023-02-20T13:48:20.020Z,4.30
2023-02-20T13:50:48.092Z,4.97
2023-02-20T13:53:17.671Z,2.35
2023-02-20T13:55:45.941Z,2.03
2023-02-20T13:58:18.063Z,1.60
2023-02-20T14:00:51.402Z,2.28
2023-02-20T14:03:23.205Z,2.38
2023-02-20T14:06:06.972Z,2.88
2023-02-20T14:08:35.928Z,3.00
2023-02-20T14:11:09.761Z,1.55
2023-02-20T14:13:42.046Z,2.13
2023-02-20T14:16:31.165Z,3.25
2023-02-20T14:19:01.257Z,3.38
2023-02-20T14:21:30.849Z,2.13
2023-02-20T14:24:12.299Z,2.97
2023-02-20T14:26:40.404Z,3.10
2023-02-20T14:29:22.762Z,2.42
2023-02-20T14:31:52.878Z,2.65
2023-02-20T14:34:30.615Z,2.53
2023-02-20T14:37:08.298Z,1.50
2023-02-20T14:39:49.017Z,1.75
2023-02-20T14:42:23.322Z,1.38
2023-02-20T14:45:00.942Z,2.75
2023-02-20T14:47:29.778Z,2.25
2023-02-20T14:50:09.692Z,1.63
2023-02-20T14:52:41.051Z,1.52
2023-02-20T14:55:18.187Z,1.33
2023-02-20T14:57:47.004Z,2.28
2023-02-20T15:00:34.600Z,1.48
2023-02-20T15:03:17.520Z,1.15
2023-02-20T15:05:53.269Z,2.03
2023-02-20T15:08:24.500Z,2.42
2023-02-20T15:10:53.634Z,2.50
2023-02-20T15:13:27.793Z,2.15
2023-02-20T15:16:08.379Z,3.15
2023-02-20T15:18:40.412Z,2.10
2023-02-20T15:21:09.741Z,2.42
2023-02-20T15:23:39.700Z,2.90
2023-02-20T15:26:31.104Z,2.00
2023-02-20T15:29:14.077Z,2.70
2023-02-20T15:31:44.246Z,2.88
2023-02-20T15:34:21.781Z,5.03
2023-02-20T15:36:51.037Z,3.33
2023-02-20T15:39:19.516Z,2.97
2023-02-20T15:41:49.802Z,3.08
2023-02-20T15:44:18.706Z,3.08
2023-02-20T15:46:48.348Z,3.22
2023-02-20T15:49:20.818Z,3.28
2023-02-20T15:51:56.169Z,3.47
2023-02-20T15:54:28.214Z,3.30
2023-02-20T15:56:56.403Z,2.58
2023-02-20T15:59:25.068Z,1.70
2023-02-20T16:01:54.739Z,2.78
2023-02-20T16:04:22.978Z,2.20
2023-02-20T16:06:51.555Z,2.47
2023-02-20T16:09:19.672Z,1.75
2023-02-20T16:11:49.342Z,3.30
2023-02-20T16:14:18.235Z,2.55
2023-02-20T16:16:49.785Z,2.13
2023-02-20T16:19:28.079Z,2.28
2023-02-20T16:22:02.087Z,2.17
2023-02-20T16:24:30.163Z,3.33
2023-02-20T16:26:58.322Z,1.63
2023-02-20T16:29:32.221Z,4.50
2023-02-20T16:32:34.287Z,2.00
2023-02-20T16:35:04.301Z,2.45
2023-02-20T16:37:33.237Z,3.15
2023-02-20T16:40:01.237Z,3.80
2023-02-20T16:42:34.228Z,5.03
2023-02-20T16:45:06.142Z,4.55
2023-02-20T16:47:34.367Z,3.63
2023-02-20T16:50:07.720Z,4.35
2023-02-20T16:52:38.214Z,5.32
2023-02-20T16:55:20.879Z,3.05
2023-02-20T16:57:49.168Z,2.95
2023-02-20T17:00:19.903Z,2.92
2023-02-20T17:02:48.366Z,3.00
2023-02-20T17:05:20.198Z,2.65
2023-02-20T17:07:48.482Z,2.13
2023-02-20T17:10:17.463Z,3.53
2023-02-20T17:12:45.588Z,1.88
2023-02-20T17:15:18.077Z,2.28
2023-02-20T17:17:46.159Z,2.22
2023-02-20T17:20:17.158Z,3.20
2023-02-20T17:22:55.700Z,3.28
2023-02-20T17:25:31.503Z,3.22
2023-02-20T17:28:00.054Z,3.90
2023-02-20T17:30:28.505Z,3.15
2023-02-20T17:32:57.100Z,4.28
2023-02-20T17:35:25.190Z,5.05
2023-02-20T17:37:55.141Z,2.95
2023-02-20T17:40:23.233Z,3.60
2023-02-20T17:42:52.854Z,2.20
2023-02-20T17:45:21.426Z,3.17
2023-02-20T17:47:49.989Z,2.63
2023-02-20T17:50:20.092Z,3.03
2023-02-20T17:52:49.491Z,5.43
2023-02-20T17:55:22.467Z,2.35
2023-02-20T17:57:51.203Z,2.88
2023-02-20T18:00:21.690Z,4.80
2023-02-20T18:02:50.262Z,3.58
2023-02-20T18:05:18.380Z,7.03
2023-02-20T18:07:47.829Z,4.07
2023-02-20T18:10:16.399Z,3.80
2023-02-20T18:13:02.423Z,3.88
2023-02-20T18:15:30.769Z,5.22
2023-02-20T18:17:59.100Z,5.88
2023-02-20T18:20:27.238Z,2.25
2023-02-20T18:22:56.491Z,4.13
2023-02-20T18:25:38.017Z,4.97
2023-02-20T18:28:09.985Z,7.30
2023-02-20T18:30:39.240Z,5.05
2023-02-20T18:33:07.453Z,4.00
2023-02-20T18:35:36.439Z,5.00
2023-02-20T18:38:04.612Z,3.90
2023-02-20T18:40:32.826Z,5.75
2023-02-20T18:43:00.949Z,5.07
2023-02-20T18:45:30.522Z,3.88
2023-02-20T18:47:58.586Z,2.72
2023-02-20T18:50:28.047Z,3.67
2023-02-20T18:52:56.168Z,4.63
2023-02-20T18:55:24.621Z,4.13
2023-02-20T18:57:53.565Z,5.65
2023-02-20T19:00:24.582Z,3.83
2023-02-20T19:02:55.684Z,4.70
2023-02-20T19:05:25.557Z,2.63
2023-02-20T19:07:54.225Z,4.75
2023-02-20T19:10:24.257Z,5.45
2023-02-20T19:12:54.148Z,4.28
2023-02-20T19:15:24.082Z,3.75
2023-02-20T19:17:55.152Z,3.20
2023-02-20T19:20:28.712Z,3.55
2023-02-20T19:22:58.513Z,3.50
2023-02-20T19:25:26.653Z,5.25
2023-02-20T19:27:55.677Z,4.65
2023-02-20T19:30:23.787Z,4.20
2023-02-20T19:32:53.853Z,4.05
2023-02-20T19:35:22.851Z,3.13
2023-02-20T19:37:51.350Z,3.63
2023-02-20T19:40:20.313Z,5.22
2023-02-20T19:42:48.446Z,4.43
2023-02-20T19:45:17.257Z,3.92
2023-02-20T19:47:45.358Z,6.18
2023-02-20T19:50:16.647Z,6.50
2023-02-20T19:52:44.736Z,4.32
2023-02-20T19:55:18.980Z,4.45
2023-02-20T19:57:47.683Z,2.95
2023-02-20T20:00:18.889Z,4.47
2023-02-20T20:02:48.815Z,4.20
2023-02-20T20:05:19.112Z,5.68
2023-02-20T20:07:47.953Z,5.68
2023-02-20T20:10:16.716Z,4.60
2023-02-20T20:12:48.083Z,5.10
2023-02-20T20:15:18.930Z,5.68
2023-02-20T20:17:47.168Z,3.78
2023-02-20T20:20:16.056Z,4.50
2023-02-20T20:22:45.902Z,2.45
2023-02-20T20:25:15.005Z,5.88
2023-02-20T20:27:43.139Z,5.43
2023-02-20T20:30:18.234Z,3.97
2023-02-20T20:32:47.738Z,5.25
2023-02-20T20:35:16.701Z,4.68
2023-02-20T20:37:46.272Z,3.53
2023-02-20T20:40:15.491Z,3.35
2023-02-20T20:42:44.015Z,3.40
2023-02-20T20:45:13.988Z,2.83
2023-02-20T20:47:44.700Z,4.97
2023-02-20T20:50:14.967Z,4.03
2023-02-20T20:52:43.059Z,4.72
2023-02-20T20:55:13.239Z,3.28
2023-02-20T20:57:41.569Z,2.38
2023-02-20T21:00:13.367Z,3.25
2023-02-20T21:02:41.923Z,3.63
2023-02-20T21:05:11.327Z,4.32
2023-02-20T21:07:41.083Z,3.55
2023-02-20T21:10:10.768Z,2.45
2023-02-20T21:12:41.185Z,3.53
2023-02-20T21:15:11.241Z,3.33
2023-02-20T21:17:39.543Z,2.17
2023-02-20T21:20:13.325Z,4.25
2023-02-20T21:22:41.947Z,4.45
2023-02-20T21:25:10.834Z,4.25
2023-02-20T21:27:40.606Z,2.30
2023-02-20T21:30:10.914Z,3.30
2023-02-20T21:32:39.166Z,2.40
2023-02-20T21:35:08.206Z,4.13
2023-02-20T21:37:36.308Z,3.20
2023-02-20T21:40:05.117Z,4.28
2023-02-20T21:42:50.573Z,3.28
2023-02-20T21:45:21.070Z,2.70
2023-02-20T21:47:49.377Z,5.93
2023-02-20T21:50:20.124Z,6.13
2023-02-20T21:52:49.230Z,4.47
2023-02-20T21:55:21.717Z,4.30
2023-02-20T21:57:50.276Z,3.22
2023-02-20T22:00:18.054Z,3.92
2023-02-20T22:02:46.424Z,3.78
2023-02-20T22:05:14.210Z,3.22
2023-02-20T22:08:00.101Z,2.90
2023-02-20T22:10:45.813Z,4.32
2023-02-20T22:13:31.811Z,3.10
2023-02-20T22:16:17.245Z,4.03
2023-02-20T22:19:04.549Z,2.92
2023-02-20T22:21:50.516Z,4.57
2023-02-20T22:24:39.016Z,3.75
2023-02-20T22:27:27.512Z,3.10
2023-02-20T22:30:13.681Z,3.50
2023-02-20T22:33:00.082Z,4.68
2023-02-20T22:35:47.254Z,3.70
2023-02-20T22:38:33.124Z,2.97
2023-02-20T22:41:18.487Z,2.00
2023-02-20T22:44:04.267Z,3.40
2023-02-20T22:46:50.148Z,6.75
2023-02-20T22:49:36.260Z,3.45
2023-02-20T22:52:23.051Z,5.45
2023-02-20T22:55:09.531Z,3.40
2023-02-20T22:57:55.589Z,5.15
2023-02-20T23:00:41.105Z,4.03
2023-02-20T23:03:26.994Z,4.32
2023-02-20T23:06:17.910Z,3.85
2023-02-20T23:09:05.461Z,3.75
2023-02-20T23:11:52.498Z,3.90
2023-02-20T23:14:38.744Z,4.00
2023-02-20T23:17:35.002Z,6.65
2023-02-20T23:20:22.746Z,3.33
2023-02-20T23:23:08.602Z,4.80
2023-02-20T23:25:56.191Z,4.32
2023-02-20T23:28:41.414Z,5.93
2023-02-20T23:31:27.148Z,3.83
2023-02-20T23:34:12.422Z,8.00
2023-02-20T23:36:59.145Z,7.35
2023-02-20T23:39:44.583Z,3.53
2023-02-20T23:42:31.972Z,3.35
2023-02-20T23:45:17.660Z,3.55
2023-02-20T23:48:02.922Z,3.15
2023-02-20T23:50:48.736Z,4.82
2023-02-20T23:53:34.444Z,4.47
2023-02-20T23:56:20.378Z,4.57
2023-02-20T23:59:07.347Z,4.45
